sensor_id;sensor_type;location;lat;lon;timestamp;P1;durP1;ratioP1;P2;durP2;ratioP2
29254;SDS011;16277;48.890;2.306;2022-07-23T00:14:23;11.20;;;10.30;;
29254;SDS011;16277;48.890;2.306;2022-07-23T00:29:27;14.33;;;8.87;;
29254;SDS011;16277;48.890;2.306;2022-07-23T00:44:32;15.17;;;11.43;;
29254;SDS011;16277;48.890;2.306;2022-07-23T00:59:37;13.13;;;11.73;;
29254;SDS011;16277;48.890;2.306;2022-07-23T01:14:42;18.80;;;10.53;;
29254;SDS011;16277;48.890;2.306;2022-07-23T01:29:47;15.10;;;13.87;;
29254;SDS011;16277;48.890;2.306;2022-07-23T01:44:55;17.63;;;14.57;;
29254;SDS011;16277;48.890;2.306;2022-07-23T02:00:00;18.73;;;15.20;;
29254;SDS011;16277;48.890;2.306;2022-07-23T02:15:14;13.60;;;12.37;;
29254;SDS011;16277;48.890;2.306;2022-07-23T02:30:19;13.37;;;12.10;;
29254;SDS011;16277;48.890;2.306;2022-07-23T02:45:23;9.83;;;9.10;;
29254;SDS011;16277;48.890;2.306;2022-07-23T03:00:30;12.40;;;11.13;;
29254;SDS011;16277;48.890;2.306;2022-07-23T03:15:35;11.57;;;10.47;;
29254;SDS011;16277;48.890;2.306;2022-07-23T03:30:39;10.87;;;8.33;;
29254;SDS011;16277;48.890;2.306;2022-07-23T03:45:44;10.33;;;9.10;;
29254;SDS011;16277;48.890;2.306;2022-07-23T04:00:49;11.40;;;9.90;;
29254;SDS011;16277;48.890;2.306;2022-07-23T04:15:54;13.93;;;9.53;;
29254;SDS011;16277;48.890;2.306;2022-07-23T04:30:59;11.83;;;9.50;;
29254;SDS011;16277;48.890;2.306;2022-07-23T04:46:05;9.03;;;8.33;;
29254;SDS011;16277;48.890;2.306;2022-07-23T05:01:18;9.37;;;8.50;;
29254;SDS011;16277;48.890;2.306;2022-07-23T05:16:23;9.33;;;8.33;;
29254;SDS011;16277;48.890;2.306;2022-07-23T05:31:31;13.17;;;9.17;;
29254;SDS011;16277;48.890;2.306;2022-07-23T05:46:37;9.33;;;8.83;;
29254;SDS011;16277;48.890;2.306;2022-07-23T06:01:44;18.87;;;13.87;;
29254;SDS011;16277;48.890;2.306;2022-07-23T06:16:51;26.37;;;20.63;;
29254;SDS011;16277;48.890;2.306;2022-07-23T06:31:57;53.33;;;33.50;;
29254;SDS011;16277;48.890;2.306;2022-07-23T06:47:01;56.73;;;33.43;;
29254;SDS011;16277;48.890;2.306;2022-07-23T07:02:06;45.77;;;31.47;;
29254;SDS011;16277;48.890;2.306;2022-07-23T07:17:11;57.40;;;35.83;;
29254;SDS011;16277;48.890;2.306;2022-07-23T07:32:15;65.93;;;35.93;;
29254;SDS011;16277;48.890;2.306;2022-07-23T07:47:40;70.50;;;37.70;;
29254;SDS011;16277;48.890;2.306;2022-07-23T08:02:45;60.03;;;35.33;;
29254;SDS011;16277;48.890;2.306;2022-07-23T08:17:52;54.13;;;32.73;;
29254;SDS011;16277;48.890;2.306;2022-07-23T08:32:58;62.30;;;32.50;;
29254;SDS011;16277;48.890;2.306;2022-07-23T08:48:05;50.83;;;29.20;;
29254;SDS011;16277;48.890;2.306;2022-07-23T09:03:15;55.70;;;30.97;;
29254;SDS011;16277;48.890;2.306;2022-07-23T09:18:20;56.83;;;29.23;;
29254;SDS011;16277;48.890;2.306;2022-07-23T09:33:32;41.87;;;24.13;;
29254;SDS011;16277;48.890;2.306;2022-07-23T09:48:37;36.03;;;23.73;;
29254;SDS011;16277;48.890;2.306;2022-07-23T10:03:42;35.07;;;23.30;;
29254;SDS011;16277;48.890;2.306;2022-07-23T10:19:05;37.00;;;22.90;;
29254;SDS011;16277;48.890;2.306;2022-07-23T10:34:14;26.70;;;19.30;;
29254;SDS011;16277;48.890;2.306;2022-07-23T10:49:27;27.03;;;18.63;;
29254;SDS011;16277;48.890;2.306;2022-07-23T11:04:49;26.73;;;17.83;;
29254;SDS011;16277;48.890;2.306;2022-07-23T11:20:14;25.30;;;17.60;;
29254;SDS011;16277;48.890;2.306;2022-07-23T11:35:24;17.43;;;14.23;;
29254;SDS011;16277;48.890;2.306;2022-07-23T11:50:30;20.70;;;15.87;;
29254;SDS011;16277;48.890;2.306;2022-07-23T12:05:35;26.90;;;16.33;;
29254;SDS011;16277;48.890;2.306;2022-07-23T12:20:41;23.57;;;18.53;;
29254;SDS011;16277;48.890;2.306;2022-07-23T12:35:48;17.90;;;16.40;;
29254;SDS011;16277;48.890;2.306;2022-07-23T12:50:53;19.60;;;16.47;;
29254;SDS011;16277;48.890;2.306;2022-07-23T13:06:00;15.87;;;12.10;;
29254;SDS011;16277;48.890;2.306;2022-07-23T13:21:06;15.80;;;12.87;;
29254;SDS011;16277;48.890;2.306;2022-07-23T13:36:11;18.10;;;12.67;;
29254;SDS011;16277;48.890;2.306;2022-07-23T13:51:16;9.97;;;9.30;;
29254;SDS011;16277;48.890;2.306;2022-07-23T14:06:22;10.40;;;7.13;;
29254;SDS011;16277;48.890;2.306;2022-07-23T14:21:35;9.43;;;5.47;;
29254;SDS011;16277;48.890;2.306;2022-07-23T14:36:39;5.90;;;5.53;;
29254;SDS011;16277;48.890;2.306;2022-07-23T14:51:44;9.93;;;4.67;;
29254;SDS011;16277;48.890;2.306;2022-07-23T15:06:48;4.78;;;4.57;;
29254;SDS011;16277;48.890;2.306;2022-07-23T15:21:53;3.10;;;2.97;;
29254;SDS011;16277;48.890;2.306;2022-07-23T15:36:58;3.97;;;3.87;;
29254;SDS011;16277;48.890;2.306;2022-07-23T15:52:03;3.07;;;2.87;;
29254;SDS011;16277;48.890;2.306;2022-07-23T16:07:10;15.60;;;4.50;;
29254;SDS011;16277;48.890;2.306;2022-07-23T16:22:17;3.27;;;2.97;;
29254;SDS011;16277;48.890;2.306;2022-07-23T16:37:21;2.80;;;2.70;;
29254;SDS011;16277;48.890;2.306;2022-07-23T16:52:26;5.20;;;2.80;;
29254;SDS011;16277;48.890;2.306;2022-07-23T17:07:30;4.47;;;3.53;;
29254;SDS011;16277;48.890;2.306;2022-07-23T17:22:35;4.00;;;3.83;;
29254;SDS011;16277;48.890;2.306;2022-07-23T17:37:39;4.17;;;3.97;;
29254;SDS011;16277;48.890;2.306;2022-07-23T17:52:46;3.93;;;3.63;;
29254;SDS011;16277;48.890;2.306;2022-07-23T18:07:52;113.37;;;94.00;;
29254;SDS011;16277;48.890;2.306;2022-07-23T18:22:57;4.30;;;4.00;;
29254;SDS011;16277;48.890;2.306;2022-07-23T18:38:02;4.63;;;3.37;;
29254;SDS011;16277;48.890;2.306;2022-07-23T18:53:07;3.57;;;3.47;;
29254;SDS011;16277;48.890;2.306;2022-07-23T19:08:12;3.87;;;3.57;;
29254;SDS011;16277;48.890;2.306;2022-07-23T19:23:16;4.63;;;4.30;;
29254;SDS011;16277;48.890;2.306;2022-07-23T19:38:21;3.90;;;3.80;;
29254;SDS011;16277;48.890;2.306;2022-07-23T19:53:25;5.73;;;5.33;;
29254;SDS011;16277;48.890;2.306;2022-07-23T20:08:30;5.37;;;5.03;;
29254;SDS011;16277;48.890;2.306;2022-07-23T20:23:35;5.00;;;4.70;;
29254;SDS011;16277;48.890;2.306;2022-07-23T20:38:39;5.60;;;5.30;;
29254;SDS011;16277;48.890;2.306;2022-07-23T20:53:45;6.00;;;5.70;;
29254;SDS011;16277;48.890;2.306;2022-07-23T21:08:49;9.47;;;7.20;;
29254;SDS011;16277;48.890;2.306;2022-07-23T21:23:54;9.87;;;8.90;;
29254;SDS011;16277;48.890;2.306;2022-07-23T21:38:59;10.27;;;9.37;;
29254;SDS011;16277;48.890;2.306;2022-07-23T21:54:04;7.67;;;6.90;;
29254;SDS011;16277;48.890;2.306;2022-07-23T22:09:09;13.17;;;5.83;;
29254;SDS011;16277;48.890;2.306;2022-07-23T22:24:13;5.33;;;5.03;;
29254;SDS011;16277;48.890;2.306;2022-07-23T22:39:19;5.50;;;4.97;;
29254;SDS011;16277;48.890;2.306;2022-07-23T22:54:23;5.70;;;4.50;;
29254;SDS011;16277;48.890;2.306;2022-07-23T23:09:28;4.93;;;4.63;;
29254;SDS011;16277;48.890;2.306;2022-07-23T23:24:32;5.97;;;5.13;;
29254;SDS011;16277;48.890;2.306;2022-07-23T23:39:37;5.37;;;4.53;;
29254;SDS011;16277;48.890;2.306;2022-07-23T23:54:41;4.70;;;4.43;;
